X  Schlie├čen Metar Luftfahrt Wetterdaten     KBNA Nashville International Airport
Temperatur
30°F Temperatur
27°F Taupunkt
86% Feuchtigkeit



Wind
9 MPH
14 KM/H
4 M/S
8 KTS



10°
Nord
Aktuelle Wetterlage

Nebel Nebel
Luftdruck 1029.12 (hPa) - 30.39 (inHg)
Sichtweite 5 (Meile) - 8 (km)
Flughafen
Flughafen Code KBNA

Position : Nashville International Airport
Entfernung: 28 (mi)

Metar:
KBNA 011653Z 01008KT 5SM BR OVC008 M01/M03 A3039 RMK AO2 SLP294 T10061028

Zeit: 02-01-2023 10:53 am CST